sensor_id;sensor_type;location;lat;lon;timestamp;P1;durP1;ratioP1;P2;durP2;ratioP2
67558;SDS011;54388;53.536;49.300;2023-04-08T00:01:37;15.68;;;4.40;;
67558;SDS011;54388;53.536;49.300;2023-04-08T00:04:04;11.93;;;4.63;;
67558;SDS011;54388;53.536;49.300;2023-04-08T00:06:30;15.85;;;5.25;;
67558;SDS011;54388;53.536;49.300;2023-04-08T00:08:57;12.70;;;4.88;;
67558;SDS011;54388;53.536;49.300;2023-04-08T00:11:23;12.52;;;5.05;;
67558;SDS011;54388;53.536;49.300;2023-04-08T00:13:50;20.75;;;5.10;;
67558;SDS011;54388;53.536;49.300;2023-04-08T00:16:20;18.85;;;4.85;;
67558;SDS011;54388;53.536;49.300;2023-04-08T00:18:47;14.55;;;5.05;;
67558;SDS011;54388;53.536;49.300;2023-04-08T00:21:14;17.90;;;4.95;;
67558;SDS011;54388;53.536;49.300;2023-04-08T00:23:45;16.08;;;4.80;;
67558;SDS011;54388;53.536;49.300;2023-04-08T00:26:12;21.27;;;6.90;;
67558;SDS011;54388;53.536;49.300;2023-04-08T00:28:38;16.73;;;5.40;;
67558;SDS011;54388;53.536;49.300;2023-04-08T00:31:05;14.20;;;5.72;;
67558;SDS011;54388;53.536;49.300;2023-04-08T00:33:32;13.48;;;5.35;;
67558;SDS011;54388;53.536;49.300;2023-04-08T00:35:58;16.40;;;4.90;;
67558;SDS011;54388;53.536;49.300;2023-04-08T00:38:25;11.88;;;4.78;;
67558;SDS011;54388;53.536;49.300;2023-04-08T00:40:51;10.95;;;4.40;;
67558;SDS011;54388;53.536;49.300;2023-04-08T00:43:18;13.20;;;4.43;;
67558;SDS011;54388;53.536;49.300;2023-04-08T00:45:46;13.13;;;4.45;;
67558;SDS011;54388;53.536;49.300;2023-04-08T00:48:12;13.68;;;4.13;;
67558;SDS011;54388;53.536;49.300;2023-04-08T00:50:39;12.40;;;4.43;;
67558;SDS011;54388;53.536;49.300;2023-04-08T00:53:07;10.18;;;4.68;;
67558;SDS011;54388;53.536;49.300;2023-04-08T00:55:35;10.52;;;4.45;;
67558;SDS011;54388;53.536;49.300;2023-04-08T00:58:01;11.65;;;4.53;;
67558;SDS011;54388;53.536;49.300;2023-04-08T01:00:28;10.40;;;4.78;;
67558;SDS011;54388;53.536;49.300;2023-04-08T01:03:41;9.10;;;4.10;;
67558;SDS011;54388;53.536;49.300;2023-04-08T01:05:52;11.15;;;4.55;;
67558;SDS011;54388;53.536;49.300;2023-04-08T01:08:39;9.38;;;4.82;;
67558;SDS011;54388;53.536;49.300;2023-04-08T01:11:10;11.00;;;5.30;;
67558;SDS011;54388;53.536;49.300;2023-04-08T01:13:39;12.38;;;5.22;;
67558;SDS011;54388;53.536;49.300;2023-04-08T01:16:09;13.45;;;4.82;;
67558;SDS011;54388;53.536;49.300;2023-04-08T01:18:38;13.82;;;5.30;;
67558;SDS011;54388;53.536;49.300;2023-04-08T01:21:06;12.82;;;4.68;;
67558;SDS011;54388;53.536;49.300;2023-04-08T01:26:20;9.75;;;4.57;;
67558;SDS011;54388;53.536;49.300;2023-04-08T01:28:49;14.27;;;5.07;;
67558;SDS011;54388;53.536;49.300;2023-04-08T01:31:18;8.57;;;3.80;;
67558;SDS011;54388;53.536;49.300;2023-04-08T01:33:45;13.38;;;4.50;;
67558;SDS011;54388;53.536;49.300;2023-04-08T01:36:13;13.32;;;4.85;;
67558;SDS011;54388;53.536;49.300;2023-04-08T01:38:41;10.20;;;4.72;;
67558;SDS011;54388;53.536;49.300;2023-04-08T01:41:09;10.32;;;4.30;;
67558;SDS011;54388;53.536;49.300;2023-04-08T01:43:38;12.05;;;4.80;;
67558;SDS011;54388;53.536;49.300;2023-04-08T01:46:05;14.15;;;5.32;;
67558;SDS011;54388;53.536;49.300;2023-04-08T01:48:33;12.15;;;4.80;;
67558;SDS011;54388;53.536;49.300;2023-04-08T01:51:00;10.55;;;4.03;;
67558;SDS011;54388;53.536;49.300;2023-04-08T01:53:30;12.35;;;4.72;;
67558;SDS011;54388;53.536;49.300;2023-04-08T01:56:01;13.85;;;4.88;;
67558;SDS011;54388;53.536;49.300;2023-04-08T01:58:45;13.40;;;5.55;;
67558;SDS011;54388;53.536;49.300;2023-04-08T02:01:17;9.27;;;4.28;;
67558;SDS011;54388;53.536;49.300;2023-04-08T02:03:47;15.23;;;5.68;;
67558;SDS011;54388;53.536;49.300;2023-04-08T02:06:16;11.55;;;4.95;;
67558;SDS011;54388;53.536;49.300;2023-04-08T02:08:43;12.27;;;4.75;;
67558;SDS011;54388;53.536;49.300;2023-04-08T02:11:10;7.75;;;3.47;;
67558;SDS011;54388;53.536;49.300;2023-04-08T02:13:37;12.85;;;4.32;;
67558;SDS011;54388;53.536;49.300;2023-04-08T02:16:23;14.80;;;4.72;;
67558;SDS011;54388;53.536;49.300;2023-04-08T02:19:01;14.55;;;5.28;;
67558;SDS011;54388;53.536;49.300;2023-04-08T02:21:43;12.27;;;4.40;;
67558;SDS011;54388;53.536;49.300;2023-04-08T02:24:13;12.73;;;4.18;;
67558;SDS011;54388;53.536;49.300;2023-04-08T02:26:42;11.60;;;4.43;;
67558;SDS011;54388;53.536;49.300;2023-04-08T02:29:11;12.02;;;3.80;;
67558;SDS011;54388;53.536;49.300;2023-04-08T02:31:40;15.20;;;4.07;;
67558;SDS011;54388;53.536;49.300;2023-04-08T02:34:08;12.23;;;3.80;;
67558;SDS011;54388;53.536;49.300;2023-04-08T02:36:36;10.48;;;3.50;;
67558;SDS011;54388;53.536;49.300;2023-04-08T02:39:03;12.13;;;4.07;;
67558;SDS011;54388;53.536;49.300;2023-04-08T02:41:30;10.75;;;4.22;;
67558;SDS011;54388;53.536;49.300;2023-04-08T02:43:56;8.05;;;3.45;;
67558;SDS011;54388;53.536;49.300;2023-04-08T02:46:23;12.02;;;3.78;;
67558;SDS011;54388;53.536;49.300;2023-04-08T02:48:50;10.30;;;3.70;;
67558;SDS011;54388;53.536;49.300;2023-04-08T02:51:16;11.15;;;3.75;;
67558;SDS011;54388;53.536;49.300;2023-04-08T02:53:43;9.10;;;3.47;;
67558;SDS011;54388;53.536;49.300;2023-04-08T02:56:10;12.73;;;4.00;;
67558;SDS011;54388;53.536;49.300;2023-04-08T02:58:36;15.45;;;4.20;;
67558;SDS011;54388;53.536;49.300;2023-04-08T03:01:03;17.02;;;4.03;;
67558;SDS011;54388;53.536;49.300;2023-04-08T03:03:30;12.85;;;4.57;;
67558;SDS011;54388;53.536;49.300;2023-04-08T03:05:57;12.27;;;3.50;;
67558;SDS011;54388;53.536;49.300;2023-04-08T03:08:23;14.48;;;4.45;;
67558;SDS011;54388;53.536;49.300;2023-04-08T03:10:50;8.15;;;4.13;;
67558;SDS011;54388;53.536;49.300;2023-04-08T03:13:17;10.68;;;3.95;;
67558;SDS011;54388;53.536;49.300;2023-04-08T03:15:43;7.93;;;3.20;;
67558;SDS011;54388;53.536;49.300;2023-04-08T03:18:10;7.70;;;3.50;;
67558;SDS011;54388;53.536;49.300;2023-04-08T03:20:37;12.07;;;3.28;;
67558;SDS011;54388;53.536;49.300;2023-04-08T03:23:04;11.77;;;3.90;;
67558;SDS011;54388;53.536;49.300;2023-04-08T03:25:30;10.50;;;3.15;;
67558;SDS011;54388;53.536;49.300;2023-04-08T03:27:57;12.32;;;3.55;;
67558;SDS011;54388;53.536;49.300;2023-04-08T03:30:24;10.05;;;2.95;;
67558;SDS011;54388;53.536;49.300;2023-04-08T03:32:50;8.82;;;2.70;;
67558;SDS011;54388;53.536;49.300;2023-04-08T03:35:17;7.72;;;3.08;;
67558;SDS011;54388;53.536;49.300;2023-04-08T03:37:44;12.35;;;2.78;;
67558;SDS011;54388;53.536;49.300;2023-04-08T03:40:11;10.10;;;2.70;;
67558;SDS011;54388;53.536;49.300;2023-04-08T03:42:38;10.35;;;2.97;;
67558;SDS011;54388;53.536;49.300;2023-04-08T03:45:04;7.28;;;2.70;;
67558;SDS011;54388;53.536;49.300;2023-04-08T03:47:31;5.47;;;2.50;;
67558;SDS011;54388;53.536;49.300;2023-04-08T03:49:58;5.22;;;2.60;;
67558;SDS011;54388;53.536;49.300;2023-04-08T03:52:25;10.73;;;2.80;;
67558;SDS011;54388;53.536;49.300;2023-04-08T03:54:51;11.45;;;2.67;;
67558;SDS011;54388;53.536;49.300;2023-04-08T03:57:18;12.65;;;3.45;;
67558;SDS011;54388;53.536;49.300;2023-04-08T03:59:45;7.18;;;2.25;;
67558;SDS011;54388;53.536;49.300;2023-04-08T04:02:11;7.18;;;2.83;;
67558;SDS011;54388;53.536;49.300;2023-04-08T04:04:38;11.55;;;2.67;;
67558;SDS011;54388;53.536;49.300;2023-04-08T04:07:07;7.57;;;2.70;;
67558;SDS011;54388;53.536;49.300;2023-04-08T04:09:33;6.82;;;2.45;;
67558;SDS011;54388;53.536;49.300;2023-04-08T04:12:00;5.22;;;2.28;;
67558;SDS011;54388;53.536;49.300;2023-04-08T04:14:27;12.18;;;3.33;;
67558;SDS011;54388;53.536;49.300;2023-04-08T04:16:53;12.55;;;3.15;;
67558;SDS011;54388;53.536;49.300;2023-04-08T04:19:20;4.65;;;2.00;;
67558;SDS011;54388;53.536;49.300;2023-04-08T04:21:47;9.15;;;3.10;;
67558;SDS011;54388;53.536;49.300;2023-04-08T04:24:13;15.68;;;3.63;;
67558;SDS011;54388;53.536;49.300;2023-04-08T04:26:40;5.22;;;2.20;;
67558;SDS011;54388;53.536;49.300;2023-04-08T04:29:07;4.70;;;1.88;;
67558;SDS011;54388;53.536;49.300;2023-04-08T04:31:33;2.55;;;1.48;;
67558;SDS011;54388;53.536;49.300;2023-04-08T04:34:00;7.18;;;2.22;;
67558;SDS011;54388;53.536;49.300;2023-04-08T04:36:27;4.40;;;2.10;;
67558;SDS011;54388;53.536;49.300;2023-04-08T04:38:53;5.82;;;1.73;;
67558;SDS011;54388;53.536;49.300;2023-04-08T04:41:21;7.38;;;1.90;;
67558;SDS011;54388;53.536;49.300;2023-04-08T04:43:47;4.75;;;1.92;;
67558;SDS011;54388;53.536;49.300;2023-04-08T04:46:14;3.95;;;1.50;;
67558;SDS011;54388;53.536;49.300;2023-04-08T04:48:40;3.15;;;1.40;;
67558;SDS011;54388;53.536;49.300;2023-04-08T04:51:07;5.68;;;1.80;;
67558;SDS011;54388;53.536;49.300;2023-04-08T04:53:33;6.10;;;1.92;;
67558;SDS011;54388;53.536;49.300;2023-04-08T04:56:00;4.25;;;1.65;;
67558;SDS011;54388;53.536;49.300;2023-04-08T04:58:27;6.20;;;1.95;;
67558;SDS011;54388;53.536;49.300;2023-04-08T05:00:54;6.88;;;2.10;;
67558;SDS011;54388;53.536;49.300;2023-04-08T05:03:21;7.28;;;2.15;;
67558;SDS011;54388;53.536;49.300;2023-04-08T05:05:51;5.93;;;1.80;;
67558;SDS011;54388;53.536;49.300;2023-04-08T05:08:18;5.30;;;1.73;;
67558;SDS011;54388;53.536;49.300;2023-04-08T05:10:45;5.20;;;1.90;;
67558;SDS011;54388;53.536;49.300;2023-04-08T05:13:14;3.60;;;1.80;;
67558;SDS011;54388;53.536;49.300;2023-04-08T05:15:42;7.10;;;2.17;;
67558;SDS011;54388;53.536;49.300;2023-04-08T05:18:10;8.55;;;2.20;;
67558;SDS011;54388;53.536;49.300;2023-04-08T05:20:37;6.03;;;1.90;;
67558;SDS011;54388;53.536;49.300;2023-04-08T05:23:03;13.98;;;1.88;;
67558;SDS011;54388;53.536;49.300;2023-04-08T05:25:30;5.45;;;2.10;;
67558;SDS011;54388;53.536;49.300;2023-04-08T05:27:57;8.48;;;2.30;;
67558;SDS011;54388;53.536;49.300;2023-04-08T05:30:23;7.00;;;2.22;;
67558;SDS011;54388;53.536;49.300;2023-04-08T05:32:50;9.15;;;2.63;;
67558;SDS011;54388;53.536;49.300;2023-04-08T05:35:16;8.18;;;2.63;;
67558;SDS011;54388;53.536;49.300;2023-04-08T05:37:43;5.60;;;2.25;;
67558;SDS011;54388;53.536;49.300;2023-04-08T05:40:10;5.57;;;2.55;;
67558;SDS011;54388;53.536;49.300;2023-04-08T05:42:37;5.68;;;2.45;;
67558;SDS011;54388;53.536;49.300;2023-04-08T05:45:03;9.55;;;3.03;;
67558;SDS011;54388;53.536;49.300;2023-04-08T05:47:31;7.18;;;3.05;;
67558;SDS011;54388;53.536;49.300;2023-04-08T05:49:58;6.03;;;3.00;;
67558;SDS011;54388;53.536;49.300;2023-04-08T05:52:24;15.15;;;3.65;;
67558;SDS011;54388;53.536;49.300;2023-04-08T05:54:51;18.05;;;4.05;;
67558;SDS011;54388;53.536;49.300;2023-04-08T05:57:18;13.57;;;3.10;;
67558;SDS011;54388;53.536;49.300;2023-04-08T05:59:45;12.23;;;3.58;;
67558;SDS011;54388;53.536;49.300;2023-04-08T06:02:12;10.88;;;3.70;;
67558;SDS011;54388;53.536;49.300;2023-04-08T06:04:38;11.15;;;3.95;;
67558;SDS011;54388;53.536;49.300;2023-04-08T06:07:05;8.70;;;3.22;;
67558;SDS011;54388;53.536;49.300;2023-04-08T06:09:36;6.93;;;2.72;;
67558;SDS011;54388;53.536;49.300;2023-04-08T06:12:02;3.97;;;2.40;;
67558;SDS011;54388;53.536;49.300;2023-04-08T06:14:30;10.23;;;2.58;;
67558;SDS011;54388;53.536;49.300;2023-04-08T06:16:59;9.98;;;3.20;;
67558;SDS011;54388;53.536;49.300;2023-04-08T06:19:26;5.20;;;2.60;;
67558;SDS011;54388;53.536;49.300;2023-04-08T06:21:52;3.60;;;1.95;;
67558;SDS011;54388;53.536;49.300;2023-04-08T06:24:26;6.40;;;2.38;;
67558;SDS011;54388;53.536;49.300;2023-04-08T06:26:54;6.95;;;2.58;;
67558;SDS011;54388;53.536;49.300;2023-04-08T06:29:21;8.25;;;2.83;;
67558;SDS011;54388;53.536;49.300;2023-04-08T06:31:49;5.63;;;2.40;;
67558;SDS011;54388;53.536;49.300;2023-04-08T06:34:15;7.50;;;2.70;;
67558;SDS011;54388;53.536;49.300;2023-04-08T06:36:42;9.27;;;2.53;;
67558;SDS011;54388;53.536;49.300;2023-04-08T06:39:09;9.88;;;2.90;;
67558;SDS011;54388;53.536;49.300;2023-04-08T06:41:35;7.53;;;2.65;;
67558;SDS011;54388;53.536;49.300;2023-04-08T06:44:02;3.92;;;2.03;;
67558;SDS011;54388;53.536;49.300;2023-04-08T06:46:30;9.88;;;2.97;;
67558;SDS011;54388;53.536;49.300;2023-04-08T06:48:57;4.15;;;2.60;;
67558;SDS011;54388;53.536;49.300;2023-04-08T06:51:23;7.82;;;3.17;;
67558;SDS011;54388;53.536;49.300;2023-04-08T06:53:50;4.13;;;1.80;;
67558;SDS011;54388;53.536;49.300;2023-04-08T06:56:17;12.80;;;2.65;;
67558;SDS011;54388;53.536;49.300;2023-04-08T06:58:44;8.88;;;2.10;;
67558;SDS011;54388;53.536;49.300;2023-04-08T07:01:11;4.75;;;1.92;;
67558;SDS011;54388;53.536;49.300;2023-04-08T07:03:38;5.38;;;1.90;;
67558;SDS011;54388;53.536;49.300;2023-04-08T07:06:04;5.72;;;2.35;;
67558;SDS011;54388;53.536;49.300;2023-04-08T07:08:31;5.13;;;2.40;;
67558;SDS011;54388;53.536;49.300;2023-04-08T07:10:57;6.10;;;2.28;;
67558;SDS011;54388;53.536;49.300;2023-04-08T07:13:24;11.27;;;2.10;;
67558;SDS011;54388;53.536;49.300;2023-04-08T07:15:51;8.50;;;2.15;;
67558;SDS011;54388;53.536;49.300;2023-04-08T07:18:17;7.82;;;2.20;;
67558;SDS011;54388;53.536;49.300;2023-04-08T07:20:52;5.13;;;1.63;;
67558;SDS011;54388;53.536;49.300;2023-04-08T07:23:19;5.25;;;1.67;;
67558;SDS011;54388;53.536;49.300;2023-04-08T07:25:46;3.80;;;1.90;;
67558;SDS011;54388;53.536;49.300;2023-04-08T07:28:13;3.05;;;1.60;;
67558;SDS011;54388;53.536;49.300;2023-04-08T07:30:40;11.43;;;2.92;;
67558;SDS011;54388;53.536;49.300;2023-04-08T07:33:06;6.05;;;2.30;;
67558;SDS011;54388;53.536;49.300;2023-04-08T07:35:33;7.55;;;1.77;;
67558;SDS011;54388;53.536;49.300;2023-04-08T07:37:59;3.28;;;1.60;;
67558;SDS011;54388;53.536;49.300;2023-04-08T07:40:26;5.35;;;1.52;;
67558;SDS011;54388;53.536;49.300;2023-04-08T07:42:52;6.43;;;1.92;;
67558;SDS011;54388;53.536;49.300;2023-04-08T07:45:19;4.75;;;1.95;;
67558;SDS011;54388;53.536;49.300;2023-04-08T07:47:45;5.65;;;1.88;;
67558;SDS011;54388;53.536;49.300;2023-04-08T07:50:12;9.52;;;1.88;;
67558;SDS011;54388;53.536;49.300;2023-04-08T07:52:39;5.97;;;2.22;;
67558;SDS011;54388;53.536;49.300;2023-04-08T07:55:05;5.93;;;1.98;;
67558;SDS011;54388;53.536;49.300;2023-04-08T07:57:33;5.95;;;2.15;;
67558;SDS011;54388;53.536;49.300;2023-04-08T07:59:59;6.18;;;2.35;;
67558;SDS011;54388;53.536;49.300;2023-04-08T08:02:26;5.85;;;1.75;;
67558;SDS011;54388;53.536;49.300;2023-04-08T08:04:53;7.22;;;2.13;;
67558;SDS011;54388;53.536;49.300;2023-04-08T08:07:20;5.10;;;2.20;;
67558;SDS011;54388;53.536;49.300;2023-04-08T08:09:46;5.75;;;2.55;;
67558;SDS011;54388;53.536;49.300;2023-04-08T08:12:13;4.30;;;2.10;;
67558;SDS011;54388;53.536;49.300;2023-04-08T08:14:40;5.43;;;2.30;;
67558;SDS011;54388;53.536;49.300;2023-04-08T08:17:07;5.90;;;2.38;;
67558;SDS011;54388;53.536;49.300;2023-04-08T08:19:33;3.78;;;2.03;;
67558;SDS011;54388;53.536;49.300;2023-04-08T08:22:01;6.05;;;2.30;;
67558;SDS011;54388;53.536;49.300;2023-04-08T08:24:27;5.85;;;1.88;;
67558;SDS011;54388;53.536;49.300;2023-04-08T08:26:54;5.38;;;2.30;;
67558;SDS011;54388;53.536;49.300;2023-04-08T08:29:21;6.43;;;2.63;;
67558;SDS011;54388;53.536;49.300;2023-04-08T08:31:47;6.25;;;2.20;;
67558;SDS011;54388;53.536;49.300;2023-04-08T08:34:14;3.72;;;2.00;;
67558;SDS011;54388;53.536;49.300;2023-04-08T08:36:41;6.07;;;2.40;;
67558;SDS011;54388;53.536;49.300;2023-04-08T08:39:07;5.75;;;2.40;;
67558;SDS011;54388;53.536;49.300;2023-04-08T08:41:34;3.55;;;1.90;;
67558;SDS011;54388;53.536;49.300;2023-04-08T08:44:04;4.63;;;1.92;;
67558;SDS011;54388;53.536;49.300;2023-04-08T08:46:31;8.00;;;2.95;;
67558;SDS011;54388;53.536;49.300;2023-04-08T08:48:59;6.25;;;2.80;;
67558;SDS011;54388;53.536;49.300;2023-04-08T08:51:26;5.30;;;2.53;;
67558;SDS011;54388;53.536;49.300;2023-04-08T08:53:54;5.05;;;2.50;;
67558;SDS011;54388;53.536;49.300;2023-04-08T08:56:21;6.60;;;2.70;;
67558;SDS011;54388;53.536;49.300;2023-04-08T08:58:48;6.63;;;2.40;;
67558;SDS011;54388;53.536;49.300;2023-04-08T09:01:30;5.13;;;2.05;;
67558;SDS011;54388;53.536;49.300;2023-04-08T09:06:32;6.72;;;2.60;;
67558;SDS011;54388;53.536;49.300;2023-04-08T09:08:59;5.22;;;2.40;;
67558;SDS011;54388;53.536;49.300;2023-04-08T09:11:27;3.13;;;1.65;;
67558;SDS011;54388;53.536;49.300;2023-04-08T09:13:53;4.38;;;2.00;;
67558;SDS011;54388;53.536;49.300;2023-04-08T09:16:21;4.03;;;1.98;;
67558;SDS011;54388;53.536;49.300;2023-04-08T09:18:48;15.02;;;3.00;;
67558;SDS011;54388;53.536;49.300;2023-04-08T09:21:15;4.93;;;2.15;;
67558;SDS011;54388;53.536;49.300;2023-04-08T09:23:43;5.93;;;2.05;;
67558;SDS011;54388;53.536;49.300;2023-04-08T09:26:15;4.25;;;1.77;;
67558;SDS011;54388;53.536;49.300;2023-04-08T09:29:01;4.70;;;2.10;;
67558;SDS011;54388;53.536;49.300;2023-04-08T09:31:33;3.13;;;1.77;;
67558;SDS011;54388;53.536;49.300;2023-04-08T09:34:15;5.43;;;1.65;;
67558;SDS011;54388;53.536;49.300;2023-04-08T09:36:45;6.00;;;1.73;;
67558;SDS011;54388;53.536;49.300;2023-04-08T09:39:13;9.40;;;2.58;;
67558;SDS011;54388;53.536;49.300;2023-04-08T09:41:41;5.40;;;2.17;;
67558;SDS011;54388;53.536;49.300;2023-04-08T09:44:09;5.18;;;1.90;;
67558;SDS011;54388;53.536;49.300;2023-04-08T09:52:06;22.67;;;3.10;;
67558;SDS011;54388;53.536;49.300;2023-04-08T09:57:30;3.72;;;2.22;;
67558;SDS011;54388;53.536;49.300;2023-04-08T10:00:21;4.57;;;1.98;;
67558;SDS011;54388;53.536;49.300;2023-04-08T10:02:55;4.28;;;2.05;;
67558;SDS011;54388;53.536;49.300;2023-04-08T10:05:40;6.40;;;1.50;;
67558;SDS011;54388;53.536;49.300;2023-04-08T10:08:08;3.25;;;1.80;;
67558;SDS011;54388;53.536;49.300;2023-04-08T10:10:37;3.90;;;2.08;;
67558;SDS011;54388;53.536;49.300;2023-04-08T10:13:05;6.03;;;2.05;;
67558;SDS011;54388;53.536;49.300;2023-04-08T10:15:33;3.78;;;1.48;;
67558;SDS011;54388;53.536;49.300;2023-04-08T10:23:00;8.05;;;2.13;;
67558;SDS011;54388;53.536;49.300;2023-04-08T10:25:27;7.18;;;2.78;;
67558;SDS011;54388;53.536;49.300;2023-04-08T10:27:56;2.72;;;1.90;;
67558;SDS011;54388;53.536;49.300;2023-04-08T10:32:52;7.28;;;2.10;;
67558;SDS011;54388;53.536;49.300;2023-04-08T10:35:30;7.10;;;2.10;;
67558;SDS011;54388;53.536;49.300;2023-04-08T10:38:01;4.75;;;1.70;;
67558;SDS011;54388;53.536;49.300;2023-04-08T10:40:31;5.03;;;1.90;;
67558;SDS011;54388;53.536;49.300;2023-04-08T10:43:03;6.32;;;2.20;;
67558;SDS011;54388;53.536;49.300;2023-04-08T10:45:30;7.63;;;2.00;;
67558;SDS011;54388;53.536;49.300;2023-04-08T10:48:09;8.43;;;2.20;;
67558;SDS011;54388;53.536;49.300;2023-04-08T10:50:43;4.70;;;2.55;;
67558;SDS011;54388;53.536;49.300;2023-04-08T10:55:49;4.75;;;2.38;;
67558;SDS011;54388;53.536;49.300;2023-04-08T10:58:17;6.30;;;1.63;;
67558;SDS011;54388;53.536;49.300;2023-04-08T11:00:43;7.75;;;2.50;;
67558;SDS011;54388;53.536;49.300;2023-04-08T11:03:10;4.00;;;1.95;;
67558;SDS011;54388;53.536;49.300;2023-04-08T11:05:37;9.20;;;2.13;;
67558;SDS011;54388;53.536;49.300;2023-04-08T11:08:04;3.85;;;1.95;;
67558;SDS011;54388;53.536;49.300;2023-04-08T11:10:35;8.23;;;2.15;;
67558;SDS011;54388;53.536;49.300;2023-04-08T11:13:06;3.53;;;2.00;;
67558;SDS011;54388;53.536;49.300;2023-04-08T11:15:34;3.30;;;1.75;;
67558;SDS011;54388;53.536;49.300;2023-04-08T11:18:02;12.57;;;2.22;;
67558;SDS011;54388;53.536;49.300;2023-04-08T11:20:30;4.18;;;1.77;;
67558;SDS011;54388;53.536;49.300;2023-04-08T11:23:00;3.95;;;1.77;;
67558;SDS011;54388;53.536;49.300;2023-04-08T11:25:28;9.10;;;1.92;;
67558;SDS011;54388;53.536;49.300;2023-04-08T11:27:54;6.20;;;1.52;;
67558;SDS011;54388;53.536;49.300;2023-04-08T11:30:21;8.85;;;2.05;;
67558;SDS011;54388;53.536;49.300;2023-04-08T11:32:48;3.78;;;2.08;;
67558;SDS011;54388;53.536;49.300;2023-04-08T11:35:16;6.22;;;2.22;;
67558;SDS011;54388;53.536;49.300;2023-04-08T11:37:43;8.38;;;2.55;;
67558;SDS011;54388;53.536;49.300;2023-04-08T11:40:11;8.43;;;2.20;;
67558;SDS011;54388;53.536;49.300;2023-04-08T11:42:38;5.82;;;2.00;;
67558;SDS011;54388;53.536;49.300;2023-04-08T11:45:11;7.25;;;2.17;;
67558;SDS011;54388;53.536;49.300;2023-04-08T11:47:41;4.72;;;2.25;;
67558;SDS011;54388;53.536;49.300;2023-04-08T11:50:08;8.77;;;2.13;;
67558;SDS011;54388;53.536;49.300;2023-04-08T11:55:20;4.95;;;1.90;;
67558;SDS011;54388;53.536;49.300;2023-04-08T11:57:47;8.73;;;2.10;;
67558;SDS011;54388;53.536;49.300;2023-04-08T12:00:14;3.67;;;1.77;;
67558;SDS011;54388;53.536;49.300;2023-04-08T12:02:40;4.05;;;1.17;;
67558;SDS011;54388;53.536;49.300;2023-04-08T12:05:07;2.75;;;1.33;;
67558;SDS011;54388;53.536;49.300;2023-04-08T12:07:34;2.28;;;1.40;;
67558;SDS011;54388;53.536;49.300;2023-04-08T12:10:00;3.22;;;1.70;;
67558;SDS011;54388;53.536;49.300;2023-04-08T12:12:27;6.70;;;1.65;;
67558;SDS011;54388;53.536;49.300;2023-04-08T12:14:53;6.70;;;2.03;;
67558;SDS011;54388;53.536;49.300;2023-04-08T12:17:20;5.63;;;1.50;;
67558;SDS011;54388;53.536;49.300;2023-04-08T12:19:46;5.97;;;1.90;;
67558;SDS011;54388;53.536;49.300;2023-04-08T12:22:13;6.13;;;2.08;;
67558;SDS011;54388;53.536;49.300;2023-04-08T12:24:40;7.45;;;2.28;;
67558;SDS011;54388;53.536;49.300;2023-04-08T12:27:07;4.57;;;2.00;;
67558;SDS011;54388;53.536;49.300;2023-04-08T12:29:34;3.00;;;1.80;;
67558;SDS011;54388;53.536;49.300;2023-04-08T12:32:00;5.10;;;2.03;;
67558;SDS011;54388;53.536;49.300;2023-04-08T12:34:29;7.22;;;2.10;;
67558;SDS011;54388;53.536;49.300;2023-04-08T12:36:56;3.30;;;1.40;;
67558;SDS011;54388;53.536;49.300;2023-04-08T12:39:23;7.03;;;2.05;;
67558;SDS011;54388;53.536;49.300;2023-04-08T12:41:50;5.57;;;2.25;;
67558;SDS011;54388;53.536;49.300;2023-04-08T12:44:16;5.00;;;1.83;;
67558;SDS011;54388;53.536;49.300;2023-04-08T12:46:43;9.63;;;2.28;;
67558;SDS011;54388;53.536;49.300;2023-04-08T12:49:10;5.47;;;1.50;;
67558;SDS011;54388;53.536;49.300;2023-04-08T12:51:37;3.70;;;1.50;;
67558;SDS011;54388;53.536;49.300;2023-04-08T12:54:05;7.13;;;1.50;;
67558;SDS011;54388;53.536;49.300;2023-04-08T12:56:32;6.22;;;1.98;;
67558;SDS011;54388;53.536;49.300;2023-04-08T12:58:59;6.00;;;1.60;;
67558;SDS011;54388;53.536;49.300;2023-04-08T13:01:26;17.88;;;3.10;;
67558;SDS011;54388;53.536;49.300;2023-04-08T13:03:52;4.53;;;1.83;;
67558;SDS011;54388;53.536;49.300;2023-04-08T13:06:20;6.78;;;1.95;;
67558;SDS011;54388;53.536;49.300;2023-04-08T13:08:46;4.32;;;1.73;;
67558;SDS011;54388;53.536;49.300;2023-04-08T13:11:13;4.43;;;1.75;;
67558;SDS011;54388;53.536;49.300;2023-04-08T13:13:39;3.42;;;1.80;;
67558;SDS011;54388;53.536;49.300;2023-04-08T13:16:06;3.72;;;1.80;;
67558;SDS011;54388;53.536;49.300;2023-04-08T13:18:34;3.70;;;1.90;;
67558;SDS011;54388;53.536;49.300;2023-04-08T13:21:01;3.67;;;1.60;;
67558;SDS011;54388;53.536;49.300;2023-04-08T13:23:27;4.72;;;1.85;;
67558;SDS011;54388;53.536;49.300;2023-04-08T13:25:54;3.70;;;2.05;;
67558;SDS011;54388;53.536;49.300;2023-04-08T13:28:21;5.07;;;2.00;;
67558;SDS011;54388;53.536;49.300;2023-04-08T13:30:47;5.63;;;1.85;;
67558;SDS011;54388;53.536;49.300;2023-04-08T13:33:14;6.63;;;2.05;;
67558;SDS011;54388;53.536;49.300;2023-04-08T13:35:40;6.10;;;1.77;;
67558;SDS011;54388;53.536;49.300;2023-04-08T13:38:08;6.72;;;2.00;;
67558;SDS011;54388;53.536;49.300;2023-04-08T13:40:34;6.03;;;1.50;;
67558;SDS011;54388;53.536;49.300;2023-04-08T13:43:01;5.78;;;1.42;;
67558;SDS011;54388;53.536;49.300;2023-04-08T13:45:28;1.65;;;1.25;;
67558;SDS011;54388;53.536;49.300;2023-04-08T13:47:54;3.63;;;1.58;;
67558;SDS011;54388;53.536;49.300;2023-04-08T13:50:21;6.43;;;1.80;;
67558;SDS011;54388;53.536;49.300;2023-04-08T13:52:47;5.07;;;1.60;;
67558;SDS011;54388;53.536;49.300;2023-04-08T13:55:14;3.83;;;1.83;;
67558;SDS011;54388;53.536;49.300;2023-04-08T13:57:41;4.45;;;1.40;;
67558;SDS011;54388;53.536;49.300;2023-04-08T14:00:08;5.43;;;1.80;;
67558;SDS011;54388;53.536;49.300;2023-04-08T14:02:35;5.72;;;1.65;;
67558;SDS011;54388;53.536;49.300;2023-04-08T14:05:02;4.95;;;1.92;;
67558;SDS011;54388;53.536;49.300;2023-04-08T14:07:29;3.95;;;1.40;;
67558;SDS011;54388;53.536;49.300;2023-04-08T14:09:55;10.30;;;2.38;;
67558;SDS011;54388;53.536;49.300;2023-04-08T14:12:22;13.18;;;2.30;;
67558;SDS011;54388;53.536;49.300;2023-04-08T14:14:48;3.85;;;1.85;;
67558;SDS011;54388;53.536;49.300;2023-04-08T14:17:15;4.70;;;1.65;;
67558;SDS011;54388;53.536;49.300;2023-04-08T14:19:42;5.75;;;1.85;;
67558;SDS011;54388;53.536;49.300;2023-04-08T14:22:08;6.45;;;2.30;;
67558;SDS011;54388;53.536;49.300;2023-04-08T14:24:35;4.15;;;2.15;;
67558;SDS011;54388;53.536;49.300;2023-04-08T14:27:02;6.43;;;2.40;;
67558;SDS011;54388;53.536;49.300;2023-04-08T14:29:29;16.55;;;2.90;;
67558;SDS011;54388;53.536;49.300;2023-04-08T14:31:56;5.95;;;2.60;;
67558;SDS011;54388;53.536;49.300;2023-04-08T14:34:22;6.55;;;2.42;;
67558;SDS011;54388;53.536;49.300;2023-04-08T14:36:49;4.57;;;1.95;;
67558;SDS011;54388;53.536;49.300;2023-04-08T14:39:16;4.13;;;2.13;;
67558;SDS011;54388;53.536;49.300;2023-04-08T14:41:42;6.55;;;2.33;;
67558;SDS011;54388;53.536;49.300;2023-04-08T14:44:09;4.35;;;2.00;;
67558;SDS011;54388;53.536;49.300;2023-04-08T14:46:35;10.45;;;1.92;;
67558;SDS011;54388;53.536;49.300;2023-04-08T14:49:03;5.25;;;1.88;;
67558;SDS011;54388;53.536;49.300;2023-04-08T14:51:29;11.52;;;2.72;;
67558;SDS011;54388;53.536;49.300;2023-04-08T14:53:56;9.43;;;2.60;;
67558;SDS011;54388;53.536;49.300;2023-04-08T14:56:23;8.55;;;3.03;;
67558;SDS011;54388;53.536;49.300;2023-04-08T14:58:49;6.47;;;2.30;;
67558;SDS011;54388;53.536;49.300;2023-04-08T15:01:16;12.45;;;2.50;;